createdAt,value
2017-10-08T00:02:27.270Z,3.27
2017-10-08T00:04:56.593Z,3.00
2017-10-08T00:07:25.883Z,4.07
2017-10-08T00:09:54.981Z,3.03
2017-10-08T00:12:31.065Z,3.90
2017-10-08T00:15:13.648Z,3.10
2017-10-08T00:17:42.777Z,3.40
2017-10-08T00:20:11.889Z,3.13
2017-10-08T00:22:41.011Z,3.50
2017-10-08T00:25:10.155Z,4.40
2017-10-08T00:27:39.253Z,3.50
2017-10-08T00:30:08.419Z,3.23
2017-10-08T00:32:37.574Z,2.63
2017-10-08T00:35:06.697Z,3.00
2017-10-08T00:37:36.081Z,3.57
2017-10-08T00:40:13.075Z,4.17
2017-10-08T00:42:42.243Z,3.90
2017-10-08T00:45:11.448Z,3.23
2017-10-08T00:47:41.934Z,3.80
2017-10-08T00:50:11.077Z,3.60
2017-10-08T00:52:44.097Z,3.43
2017-10-08T00:55:13.289Z,3.43
2017-10-08T00:57:42.461Z,3.37
2017-10-08T01:00:11.825Z,3.77
2017-10-08T01:02:40.986Z,3.10
2017-10-08T01:05:10.150Z,2.93
2017-10-08T01:07:39.357Z,2.93
2017-10-08T01:10:08.503Z,3.40
2017-10-08T01:12:37.644Z,3.07
2017-10-08T01:15:07.136Z,3.40
2017-10-08T01:17:36.273Z,3.33
2017-10-08T01:20:05.401Z,3.20
2017-10-08T01:22:34.530Z,3.00
2017-10-08T01:25:03.723Z,3.40
2017-10-08T01:27:32.951Z,2.73
2017-10-08T01:30:02.117Z,3.10
2017-10-08T01:32:31.287Z,3.43
2017-10-08T01:35:00.469Z,3.50
2017-10-08T01:37:37.123Z,3.53
2017-10-08T01:40:06.429Z,3.60
2017-10-08T01:42:36.549Z,3.70
2017-10-08T01:45:05.793Z,3.40
2017-10-08T01:47:42.189Z,3.50
2017-10-08T01:50:11.364Z,3.17
2017-10-08T01:52:40.612Z,3.57
2017-10-08T01:55:09.801Z,3.30
2017-10-08T01:57:39.038Z,4.10
2017-10-08T02:00:08.197Z,3.13
2017-10-08T02:02:43.445Z,3.67
2017-10-08T02:05:12.827Z,2.90
2017-10-08T02:07:41.965Z,4.50
2017-10-08T02:10:11.242Z,3.93
2017-10-08T02:12:40.381Z,3.57
2017-10-08T02:15:09.680Z,2.97
2017-10-08T02:17:38.799Z,3.37
2017-10-08T02:20:07.950Z,3.50
2017-10-08T02:22:37.091Z,3.53
2017-10-08T02:25:06.250Z,4.43
2017-10-08T02:27:35.347Z,3.50
2017-10-08T02:30:04.469Z,4.00
2017-10-08T02:32:35.565Z,3.03
2017-10-08T02:35:10.742Z,3.60
2017-10-08T02:37:39.867Z,3.87
2017-10-08T02:40:10.786Z,3.37
2017-10-08T02:42:39.918Z,3.43
2017-10-08T02:45:09.083Z,3.27
2017-10-08T02:47:45.766Z,4.20
2017-10-08T02:50:14.906Z,3.57
2017-10-08T02:52:44.053Z,3.87
2017-10-08T02:55:13.203Z,3.50
2017-10-08T02:57:50.716Z,4.83
2017-10-08T03:00:19.920Z,3.17
2017-10-08T03:02:49.084Z,3.70
2017-10-08T03:05:25.751Z,4.00
2017-10-08T03:07:54.917Z,3.83
2017-10-08T03:10:24.080Z,3.10
2017-10-08T03:12:53.234Z,4.87
2017-10-08T03:15:22.385Z,3.23
2017-10-08T03:18:04.029Z,3.37
2017-10-08T03:20:33.209Z,3.30
2017-10-08T03:23:04.109Z,3.30
2017-10-08T03:25:33.256Z,3.67
2017-10-08T03:28:02.406Z,3.00
2017-10-08T03:30:33.341Z,3.37
2017-10-08T03:33:02.485Z,2.90
2017-10-08T03:35:31.616Z,3.70
2017-10-08T03:38:00.759Z,5.43
2017-10-08T03:40:29.886Z,3.27
2017-10-08T03:42:59.045Z,3.00
2017-10-08T03:45:28.158Z,3.17
2017-10-08T03:48:03.661Z,4.20
2017-10-08T03:50:32.802Z,2.97
2017-10-08T03:53:08.717Z,3.00
2017-10-08T03:55:37.905Z,2.90
2017-10-08T03:58:07.065Z,4.07
2017-10-08T04:00:36.285Z,3.50
2017-10-08T04:03:05.385Z,3.00
2017-10-08T04:05:34.534Z,3.43
2017-10-08T04:08:03.670Z,3.70
2017-10-08T04:10:32.792Z,3.50
2017-10-08T04:13:01.953Z,3.67
2017-10-08T04:15:31.160Z,4.07
2017-10-08T04:18:00.353Z,2.87
2017-10-08T04:20:29.527Z,3.60
2017-10-08T04:23:04.852Z,3.13
2017-10-08T04:25:33.991Z,3.97
2017-10-08T04:28:03.125Z,3.10
2017-10-08T04:30:32.223Z,3.57
2017-10-08T04:33:01.410Z,4.23
2017-10-08T04:35:30.616Z,3.20
2017-10-08T04:38:03.324Z,3.20
2017-10-08T04:40:32.517Z,4.50
2017-10-08T04:43:01.706Z,3.60
2017-10-08T04:45:30.886Z,3.27
2017-10-08T04:48:00.058Z,3.30
2017-10-08T04:50:29.223Z,3.13
2017-10-08T04:53:02.226Z,4.00
2017-10-08T04:55:31.358Z,3.40
2017-10-08T04:58:00.482Z,3.43
2017-10-08T05:00:29.597Z,3.67
2017-10-08T05:02:58.731Z,3.63
2017-10-08T05:05:34.007Z,3.93
2017-10-08T05:08:03.123Z,4.73
2017-10-08T05:10:32.895Z,3.33
2017-10-08T05:13:02.052Z,4.03
2017-10-08T05:15:31.234Z,3.43
2017-10-08T05:18:00.360Z,4.17
2017-10-08T05:20:30.374Z,3.17
2017-10-08T05:22:59.514Z,3.00
2017-10-08T05:25:28.624Z,3.60
2017-10-08T05:28:06.526Z,3.33
2017-10-08T05:30:37.301Z,3.93
2017-10-08T05:33:06.448Z,3.77
2017-10-08T05:35:35.734Z,3.77
2017-10-08T05:38:04.864Z,4.13
2017-10-08T05:40:33.974Z,2.93
2017-10-08T05:43:03.111Z,3.20
2017-10-08T05:45:32.279Z,3.20
2017-10-08T05:48:01.378Z,3.47
2017-10-08T05:50:30.509Z,4.07
2017-10-08T05:53:13.443Z,3.50
2017-10-08T05:55:42.577Z,3.43
2017-10-08T05:58:11.729Z,2.83
2017-10-08T06:00:47.009Z,3.40
2017-10-08T06:03:16.138Z,3.53
2017-10-08T06:05:58.308Z,2.80
2017-10-08T06:08:27.446Z,4.30
2017-10-08T06:10:56.630Z,3.30
2017-10-08T06:13:25.769Z,3.67
2017-10-08T06:15:55.045Z,3.40
2017-10-08T06:18:24.176Z,3.97
2017-10-08T06:20:59.627Z,4.27
2017-10-08T06:23:28.783Z,4.27
2017-10-08T06:25:57.933Z,3.40
2017-10-08T06:28:27.020Z,3.53
2017-10-08T06:30:56.140Z,2.97
2017-10-08T06:33:38.037Z,3.50
2017-10-08T06:36:07.178Z,3.30
2017-10-08T06:38:36.320Z,2.93
2017-10-08T06:41:12.094Z,3.07
2017-10-08T06:43:53.464Z,3.90
2017-10-08T06:46:22.625Z,3.20
2017-10-08T06:48:52.241Z,4.03
2017-10-08T06:51:21.387Z,3.70
2017-10-08T06:53:50.500Z,3.30
2017-10-08T06:56:19.743Z,3.17
2017-10-08T06:58:49.082Z,3.40
2017-10-08T07:01:30.620Z,4.07
2017-10-08T07:04:00.807Z,3.03
2017-10-08T07:06:31.613Z,3.00
2017-10-08T07:09:00.740Z,4.50
2017-10-08T07:11:29.889Z,3.70
2017-10-08T07:13:59.028Z,3.87
2017-10-08T07:16:28.200Z,4.23
2017-10-08T07:18:57.590Z,3.63
2017-10-08T07:21:33.533Z,3.50
2017-10-08T07:24:02.692Z,3.33
2017-10-08T07:26:31.812Z,3.23
2017-10-08T07:29:00.938Z,3.20
2017-10-08T07:31:34.761Z,3.43
2017-10-08T07:34:10.878Z,3.50
2017-10-08T07:36:42.024Z,3.70
2017-10-08T07:39:12.617Z,3.53
2017-10-08T07:41:43.126Z,3.10
2017-10-08T07:44:12.284Z,3.40
2017-10-08T07:46:41.423Z,4.00
2017-10-08T07:49:10.686Z,3.93
2017-10-08T07:51:39.855Z,3.80
2017-10-08T07:54:09.004Z,3.87
2017-10-08T07:56:38.126Z,3.90
2017-10-08T07:59:07.559Z,3.53
2017-10-08T08:01:36.762Z,3.80
2017-10-08T08:04:05.908Z,3.47
2017-10-08T08:06:49.020Z,3.53
2017-10-08T08:09:18.199Z,2.63
2017-10-08T08:11:47.309Z,3.97
2017-10-08T08:14:16.457Z,3.33
2017-10-08T08:16:45.618Z,2.93
2017-10-08T08:19:14.752Z,3.53
2017-10-08T08:21:43.912Z,3.13
2017-10-08T08:24:13.069Z,3.07
2017-10-08T08:26:42.223Z,3.40
2017-10-08T08:29:11.341Z,3.97
2017-10-08T08:31:41.355Z,3.77
2017-10-08T08:34:22.845Z,3.73
2017-10-08T08:36:52.009Z,3.90
2017-10-08T08:39:29.031Z,3.57
2017-10-08T08:42:10.632Z,3.97
2017-10-08T08:44:46.554Z,4.10
2017-10-08T08:47:16.277Z,4.60
2017-10-08T08:49:45.845Z,4.10
2017-10-08T08:52:16.146Z,3.70
2017-10-08T08:54:45.294Z,4.33
2017-10-08T08:57:15.225Z,3.93
2017-10-08T08:59:44.431Z,4.43
2017-10-08T09:02:13.504Z,4.40
2017-10-08T09:04:42.782Z,3.80
2017-10-08T09:07:13.045Z,3.97
2017-10-08T09:09:42.209Z,3.70
2017-10-08T09:12:11.353Z,3.70
2017-10-08T09:14:41.005Z,4.17
2017-10-08T09:17:10.333Z,4.37
2017-10-08T09:19:39.446Z,4.30
2017-10-08T09:22:08.618Z,4.00
2017-10-08T09:24:37.731Z,4.27
2017-10-08T09:27:07.051Z,4.87
2017-10-08T09:29:36.293Z,3.53
2017-10-08T09:32:09.321Z,4.20
2017-10-08T09:34:39.930Z,4.40
2017-10-08T09:37:10.034Z,4.20
2017-10-08T09:39:39.186Z,4.77
2017-10-08T09:42:08.329Z,3.97
2017-10-08T09:44:38.056Z,4.00
2017-10-08T09:47:07.261Z,3.77
2017-10-08T09:49:38.078Z,4.20
2017-10-08T09:52:07.329Z,4.37
2017-10-08T09:54:38.173Z,3.60
2017-10-08T09:57:07.521Z,3.97
2017-10-08T09:59:36.673Z,3.90
2017-10-08T10:02:05.831Z,4.20
2017-10-08T10:04:51.829Z,4.40
2017-10-08T10:07:21.065Z,5.30
2017-10-08T10:09:50.236Z,4.60
2017-10-08T10:12:19.346Z,5.30
2017-10-08T10:14:48.795Z,3.57
2017-10-08T10:17:18.129Z,3.83
2017-10-08T10:19:47.486Z,4.17
2017-10-08T10:22:16.633Z,3.53
2017-10-08T10:24:45.999Z,3.73
2017-10-08T10:27:22.011Z,3.73
2017-10-08T10:29:51.158Z,3.83
2017-10-08T10:32:22.013Z,3.00
2017-10-08T10:34:52.023Z,4.07
2017-10-08T10:37:21.289Z,3.40
2017-10-08T10:39:50.516Z,3.53
2017-10-08T10:42:20.144Z,3.17
2017-10-08T10:45:02.435Z,3.60
2017-10-08T10:47:32.293Z,3.77
2017-10-08T10:50:01.402Z,3.20
2017-10-08T10:52:36.510Z,3.80
2017-10-08T10:55:05.868Z,3.80
2017-10-08T10:57:49.958Z,3.23
2017-10-08T11:00:19.069Z,4.43
2017-10-08T11:02:48.202Z,3.37
2017-10-08T11:05:17.586Z,4.03
2017-10-08T11:07:46.862Z,3.17
2017-10-08T11:10:16.272Z,3.10
2017-10-08T11:12:45.433Z,3.60
2017-10-08T11:15:14.603Z,3.40
2017-10-08T11:17:43.822Z,3.87
2017-10-08T11:20:13.307Z,4.33
2017-10-08T11:22:42.554Z,4.53
2017-10-08T11:25:12.228Z,4.10
2017-10-08T11:27:41.656Z,3.70
2017-10-08T11:30:10.823Z,4.00
2017-10-08T11:32:39.985Z,4.13
2017-10-08T11:35:09.607Z,3.80
2017-10-08T11:37:38.787Z,3.80
2017-10-08T11:40:07.886Z,3.90
2017-10-08T11:42:43.246Z,3.53
2017-10-08T11:45:12.471Z,4.17
2017-10-08T11:47:41.804Z,4.27
2017-10-08T11:50:10.930Z,5.77
2017-10-08T11:52:40.142Z,4.40
2017-10-08T11:55:09.749Z,3.97
2017-10-08T11:57:38.873Z,4.03
2017-10-08T12:00:08.016Z,4.33
2017-10-08T12:02:37.162Z,4.37
2017-10-08T12:05:12.270Z,4.43
2017-10-08T12:07:41.381Z,4.70
2017-10-08T12:10:10.526Z,4.40
2017-10-08T12:12:39.646Z,4.37
2017-10-08T12:15:08.813Z,4.80
2017-10-08T12:17:38.015Z,3.30
2017-10-08T12:20:07.179Z,4.60
2017-10-08T12:22:36.306Z,3.33
2017-10-08T12:25:05.434Z,4.40
2017-10-08T12:27:34.891Z,3.87
2017-10-08T12:30:04.472Z,3.27
2017-10-08T12:32:35.377Z,3.83
2017-10-08T12:35:04.661Z,4.30
2017-10-08T12:37:33.915Z,3.10
2017-10-08T12:40:03.917Z,3.60
2017-10-08T12:42:33.346Z,3.90
2017-10-08T12:45:02.502Z,3.73
2017-10-08T12:47:31.685Z,3.90
2017-10-08T12:50:15.773Z,3.60
2017-10-08T12:52:45.403Z,3.90
2017-10-08T12:55:24.761Z,3.50
2017-10-08T12:57:53.885Z,3.43
2017-10-08T13:00:35.158Z,3.27
2017-10-08T13:03:04.722Z,3.20
2017-10-08T13:05:40.078Z,2.83
2017-10-08T13:08:09.248Z,3.50
2017-10-08T13:10:45.113Z,3.60
2017-10-08T13:13:14.715Z,4.57
2017-10-08T13:16:02.799Z,3.43
2017-10-08T13:18:31.934Z,3.07
2017-10-08T13:21:01.072Z,2.40
2017-10-08T13:23:30.353Z,2.70
2017-10-08T13:25:59.605Z,3.37
2017-10-08T13:28:28.978Z,3.13
2017-10-08T13:31:00.508Z,2.77
2017-10-08T13:33:29.674Z,2.70
2017-10-08T13:36:01.338Z,3.23
2017-10-08T13:38:30.678Z,2.80
2017-10-08T13:41:06.023Z,2.77
2017-10-08T13:43:35.135Z,2.77
2017-10-08T13:46:05.870Z,3.30
2017-10-08T13:48:34.987Z,2.50
2017-10-08T13:51:04.281Z,2.83
2017-10-08T13:53:33.538Z,2.53
2017-10-08T13:56:02.694Z,2.63
2017-10-08T13:58:32.003Z,2.60
2017-10-08T14:01:01.347Z,2.73
2017-10-08T14:03:30.633Z,3.30
2017-10-08T14:05:59.883Z,2.90
2017-10-08T14:08:29.096Z,2.07
2017-10-08T14:10:58.238Z,2.57
2017-10-08T14:13:27.469Z,3.17
2017-10-08T14:15:56.621Z,2.53
2017-10-08T14:18:26.493Z,2.57
2017-10-08T14:20:56.540Z,3.23
2017-10-08T14:23:27.244Z,2.20
2017-10-08T14:25:58.400Z,3.30
2017-10-08T14:28:27.874Z,3.23
2017-10-08T14:30:57.254Z,2.03
2017-10-08T14:33:29.329Z,2.17
2017-10-08T14:36:08.010Z,2.70
2017-10-08T14:38:37.166Z,2.33
2017-10-08T14:41:06.298Z,2.40
2017-10-08T14:43:35.416Z,2.20
2017-10-08T14:46:04.655Z,3.07
2017-10-08T14:48:34.597Z,2.25
2017-10-08T14:51:17.505Z,2.65
2017-10-08T14:53:46.908Z,2.53
2017-10-08T14:56:16.197Z,2.35
2017-10-08T14:58:45.610Z,2.37
2017-10-08T15:01:15.018Z,2.10
2017-10-08T15:03:50.427Z,2.55
2017-10-08T15:06:20.808Z,1.83
2017-10-08T15:08:56.150Z,1.83
2017-10-08T15:11:25.346Z,2.10
2017-10-08T15:13:54.505Z,2.05
2017-10-08T15:16:23.955Z,2.17
2017-10-08T15:18:53.224Z,1.83
2017-10-08T15:21:22.628Z,1.95
2017-10-08T15:23:59.730Z,2.10
2017-10-08T15:26:43.292Z,1.95
2017-10-08T15:29:12.766Z,2.00
2017-10-08T15:31:42.330Z,2.17
2017-10-08T15:34:11.480Z,2.10
2017-10-08T15:36:40.636Z,2.08
2017-10-08T15:39:10.003Z,2.20
2017-10-08T15:41:39.407Z,2.00
2017-10-08T15:44:08.572Z,1.65
2017-10-08T15:46:37.854Z,2.10
2017-10-08T15:49:12.998Z,1.60
2017-10-08T15:51:57.648Z,1.95
2017-10-08T15:54:26.794Z,2.05
2017-10-08T15:56:56.137Z,1.98
2017-10-08T15:59:25.239Z,2.10
2017-10-08T16:01:54.338Z,1.85
2017-10-08T16:04:23.486Z,1.80
2017-10-08T16:06:52.625Z,2.30
2017-10-08T16:09:21.748Z,1.90
2017-10-08T16:11:57.038Z,2.15
2017-10-08T16:14:30.202Z,2.55
2017-10-08T16:16:59.333Z,2.60
2017-10-08T16:19:28.978Z,2.53
2017-10-08T16:21:58.301Z,2.87
2017-10-08T16:24:27.654Z,2.60
2017-10-08T16:27:01.169Z,2.50
2017-10-08T16:29:30.369Z,3.00
2017-10-08T16:31:59.719Z,3.53
2017-10-08T16:34:36.739Z,3.30
2017-10-08T16:37:13.591Z,3.03
2017-10-08T16:39:46.796Z,3.10
2017-10-08T16:42:16.152Z,2.80
2017-10-08T16:44:47.525Z,3.23
2017-10-08T16:47:23.196Z,3.10
2017-10-08T16:49:52.339Z,3.83
2017-10-08T16:52:21.492Z,4.20
2017-10-08T16:54:50.828Z,2.87
2017-10-08T16:57:21.598Z,3.50
2017-10-08T16:59:50.711Z,3.30
2017-10-08T17:02:21.189Z,4.03
2017-10-08T17:04:50.280Z,3.40
2017-10-08T17:07:25.646Z,4.00
2017-10-08T17:09:54.735Z,3.13
2017-10-08T17:12:28.134Z,3.40
2017-10-08T17:15:07.401Z,3.73
2017-10-08T17:17:36.738Z,4.00
2017-10-08T17:20:06.845Z,4.30
2017-10-08T17:22:38.181Z,4.57
2017-10-08T17:25:07.623Z,3.70
2017-10-08T17:27:36.950Z,3.97
2017-10-08T17:30:06.373Z,4.47
2017-10-08T17:32:35.634Z,4.10
2017-10-08T17:35:05.790Z,4.50
2017-10-08T17:37:35.348Z,4.73
2017-10-08T17:40:04.462Z,5.13
2017-10-08T17:42:33.563Z,3.97
2017-10-08T17:45:03.141Z,4.93
2017-10-08T17:47:32.746Z,4.47
2017-10-08T17:50:01.885Z,4.90
2017-10-08T17:52:38.146Z,4.37
2017-10-08T17:55:07.856Z,4.70
2017-10-08T17:57:36.972Z,5.10
2017-10-08T18:00:06.086Z,4.07
2017-10-08T18:02:35.176Z,3.80
2017-10-08T18:05:04.596Z,5.20
2017-10-08T18:07:33.744Z,5.53
2017-10-08T18:10:03.715Z,5.17
2017-10-08T18:12:32.937Z,5.73
2017-10-08T18:15:02.089Z,5.40
2017-10-08T18:17:31.291Z,6.30
2017-10-08T18:20:00.523Z,6.00
2017-10-08T18:22:38.370Z,5.30
2017-10-08T18:25:07.917Z,5.60
2017-10-08T18:27:37.412Z,5.70
2017-10-08T18:30:06.748Z,5.87
2017-10-08T18:32:35.923Z,5.47
2017-10-08T18:35:05.177Z,5.80
2017-10-08T18:37:34.484Z,5.40
2017-10-08T18:40:03.697Z,6.37
2017-10-08T18:42:32.848Z,6.00
2017-10-08T18:45:02.129Z,6.40
2017-10-08T18:47:31.739Z,5.70
2017-10-08T18:50:08.137Z,6.30
2017-10-08T18:52:37.551Z,6.07
2017-10-08T18:55:06.757Z,6.90
2017-10-08T18:57:44.580Z,6.60
2017-10-08T19:00:18.091Z,6.43
2017-10-08T19:02:47.258Z,6.63
2017-10-08T19:05:16.489Z,5.97
2017-10-08T19:07:45.629Z,6.10
2017-10-08T19:10:20.881Z,6.20
2017-10-08T19:12:50.248Z,7.40
2017-10-08T19:15:21.093Z,6.20
2017-10-08T19:17:50.215Z,6.90
2017-10-08T19:20:19.730Z,6.77
2017-10-08T19:22:49.010Z,6.83
2017-10-08T19:25:18.643Z,6.70
2017-10-08T19:27:49.692Z,6.47
2017-10-08T19:30:20.212Z,6.00
2017-10-08T19:32:49.718Z,6.37
2017-10-08T19:35:18.838Z,6.90
2017-10-08T19:37:48.228Z,7.20
2017-10-08T19:40:17.325Z,6.90
2017-10-08T19:42:46.622Z,6.63
2017-10-08T19:45:17.303Z,6.57
2017-10-08T19:47:46.589Z,6.90
2017-10-08T19:50:15.740Z,7.20
2017-10-08T19:52:51.791Z,5.90
2017-10-08T19:55:21.251Z,6.37
2017-10-08T19:57:56.394Z,6.40
2017-10-08T20:00:25.962Z,6.80
2017-10-08T20:02:55.341Z,6.43
2017-10-08T20:05:24.594Z,7.20
2017-10-08T20:07:57.025Z,7.40
2017-10-08T20:10:26.162Z,6.73
2017-10-08T20:12:55.310Z,6.50
2017-10-08T20:15:37.361Z,6.93
2017-10-08T20:18:06.659Z,7.67
2017-10-08T20:20:43.176Z,5.87
2017-10-08T20:23:19.225Z,6.57
2017-10-08T20:25:48.538Z,8.80
2017-10-08T20:28:17.897Z,5.70
2017-10-08T20:30:47.040Z,6.87
2017-10-08T20:33:16.222Z,6.40
2017-10-08T20:35:49.751Z,6.57
2017-10-08T20:38:18.850Z,5.90
2017-10-08T20:40:48.078Z,6.20
2017-10-08T20:43:23.329Z,6.83
2017-10-08T20:45:54.182Z,6.60
2017-10-08T20:48:23.353Z,6.20
2017-10-08T20:50:52.517Z,6.53
2017-10-08T20:53:21.865Z,7.30
2017-10-08T20:55:51.309Z,6.63
2017-10-08T20:58:20.462Z,6.63
2017-10-08T21:00:50.684Z,6.20
2017-10-08T21:03:26.362Z,7.20
2017-10-08T21:05:55.503Z,6.90
2017-10-08T21:08:25.157Z,5.87
2017-10-08T21:10:54.322Z,5.80
2017-10-08T21:13:23.446Z,6.80
2017-10-08T21:15:52.591Z,6.37
2017-10-08T21:18:21.725Z,7.00
2017-10-08T21:20:50.982Z,7.30
2017-10-08T21:23:24.857Z,6.30
2017-10-08T21:25:54.006Z,6.53
2017-10-08T21:28:23.357Z,6.60
2017-10-08T21:30:52.484Z,6.07
2017-10-08T21:33:21.788Z,7.10
2017-10-08T21:35:52.504Z,6.73
2017-10-08T21:38:24.699Z,7.37
2017-10-08T21:40:54.010Z,6.70
2017-10-08T21:43:23.249Z,6.13
2017-10-08T21:46:04.408Z,6.30
2017-10-08T21:48:42.520Z,6.90
2017-10-08T21:51:11.944Z,7.30
2017-10-08T21:53:46.838Z,7.50
2017-10-08T21:56:18.040Z,6.13
2017-10-08T21:58:47.204Z,6.53
2017-10-08T22:01:17.461Z,6.13
2017-10-08T22:03:46.988Z,6.70
2017-10-08T22:06:16.484Z,6.90
2017-10-08T22:08:46.098Z,6.93
2017-10-08T22:11:15.297Z,6.60
2017-10-08T22:13:44.623Z,6.80
2017-10-08T22:16:14.184Z,6.17
2017-10-08T22:18:43.454Z,6.30
2017-10-08T22:21:12.573Z,7.90
2017-10-08T22:23:42.597Z,6.67
2017-10-08T22:26:11.705Z,7.30
2017-10-08T22:28:40.991Z,6.23
2017-10-08T22:31:10.133Z,7.17
2017-10-08T22:33:43.426Z,6.67
2017-10-08T22:36:12.652Z,7.33
2017-10-08T22:38:41.853Z,6.97
2017-10-08T22:41:11.322Z,6.63
2017-10-08T22:43:40.564Z,6.83
2017-10-08T22:46:17.260Z,6.80
2017-10-08T22:48:46.553Z,6.50
2017-10-08T22:51:15.682Z,6.80
2017-10-08T22:53:44.812Z,7.43
2017-10-08T22:56:14.026Z,7.37
2017-10-08T22:58:43.221Z,7.40
2017-10-08T23:01:12.355Z,6.60
2017-10-08T23:03:53.822Z,7.70
2017-10-08T23:06:22.944Z,7.50
2017-10-08T23:08:52.220Z,7.70
2017-10-08T23:11:21.358Z,7.20
2017-10-08T23:13:59.684Z,7.87
2017-10-08T23:16:30.829Z,7.97
2017-10-08T23:19:11.452Z,7.23
2017-10-08T23:21:40.733Z,8.27
2017-10-08T23:24:10.769Z,6.83
2017-10-08T23:26:50.523Z,7.73
2017-10-08T23:29:19.642Z,7.07
2017-10-08T23:32:02.945Z,6.53
2017-10-08T23:34:32.222Z,7.43
2017-10-08T23:37:01.351Z,7.10
2017-10-08T23:39:30.957Z,7.17
2017-10-08T23:42:00.093Z,6.87
2017-10-08T23:44:29.115Z,7.37
2017-10-08T23:46:58.244Z,6.60
2017-10-08T23:49:27.650Z,6.87
2017-10-08T23:51:56.965Z,6.70
2017-10-08T23:54:26.163Z,7.17
2017-10-08T23:56:58.407Z,6.97
2017-10-08T23:59:27.528Z,7.03
